Time;durP1;ratioP1;P1;durP2;ratioP2;P2;SDS_P1;SDS_P2;PMS_P1;PMS_P2;Temp;Humidity;BMP_temperature;BMP_pressure;BME280_temperature;BME280_humidity;BME280_pressure;Samples;Min_cycle;Max_cycle;Signal;HPM_P1;HPM_P2
2022/09/21 00:01:31;;;;;;;3.33;1.35;;;;;;;;;;5111317;28;20016;-73
2022/09/21 00:04:01;;;;;;;3.15;1.60;;;;;;;;;;5110937;28;20024;-72
2022/09/21 00:06:30;;;;;;;3.60;1.58;;;;;;;;;;5110571;28;20024;-72
2022/09/21 00:08:56;;;;;;;2.75;1.38;;;;;;;;;;5110886;28;20455;-72
2022/09/21 00:11:26;;;;;;;3.10;1.58;;;;;;;;;;5111043;28;20020;-72
2022/09/21 00:13:53;;;;;;;4.90;1.80;;;;;;;;;;5110256;28;20072;-72
2022/09/21 00:16:20;;;;;;;6.60;1.58;;;;;;;;;;5111024;28;20474;-72
2022/09/21 00:18:47;;;;;;;3.33;1.85;;;;;;;;;;5110239;28;20032;-72
2022/09/21 00:21:14;;;;;;;3.33;1.50;;;;;;;;;;5110615;28;20077;-70
2022/09/21 00:23:41;;;;;;;3.20;1.35;;;;;;;;;;5110533;28;20052;-71
2022/09/21 00:26:26;;;;;;;3.00;1.40;;;;;;;;;;5110319;28;20027;-70
2022/09/21 00:28:57;;;;;;;3.03;1.35;;;;;;;;;;5110552;28;20380;-71
2022/09/21 00:31:23;;;;;;;2.55;1.20;;;;;;;;;;5110452;28;20384;-71
2022/09/21 00:33:50;;;;;;;2.75;1.40;;;;;;;;;;5109941;28;20028;-71
2022/09/21 00:36:17;;;;;;;2.85;1.13;;;;;;;;;;5110390;28;20020;-71
2022/09/21 00:38:45;;;;;;;2.88;1.40;;;;;;;;;;5110115;28;20056;-72
2022/09/21 00:41:11;;;;;;;2.40;1.40;;;;;;;;;;5109833;28;20044;-71
2022/09/21 00:43:40;;;;;;;2.17;1.27;;;;;;;;;;5110470;28;20030;-71
2022/09/21 00:46:10;;;;;;;2.85;1.45;;;;;;;;;;5110156;28;20380;-70
2022/09/21 00:48:36;;;;;;;3.25;1.20;;;;;;;;;;5109680;28;20031;-71
2022/09/21 00:51:05;;;;;;;3.00;1.23;;;;;;;;;;5095892;28;20020;-71
2022/09/21 00:53:32;;;;;;;3.42;1.42;;;;;;;;;;5096450;28;20031;-71
2022/09/21 00:55:59;;;;;;;3.65;1.40;;;;;;;;;;5095891;28;20024;-71
2022/09/21 00:58:30;;;;;;;1.88;1.20;;;;;;;;;;5096313;28;20028;-71
2022/09/21 01:00:58;;;;;;;2.13;1.40;;;;;;;;;;5095882;28;20146;-71
2022/09/21 01:03:24;;;;;;;2.10;1.30;;;;;;;;;;5096204;28;20054;-71
2022/09/21 01:05:50;;;;;;;1.67;1.10;;;;;;;;;;5096138;28;20468;-71
2022/09/21 01:08:17;;;;;;;2.53;1.40;;;;;;;;;;5095697;28;20059;-71
2022/09/21 01:10:43;;;;;;;3.03;1.55;;;;;;;;;;5096348;28;20031;-71
2022/09/21 01:13:28;;;;;;;2.55;1.30;;;;;;;;;;5096022;28;20074;-71
2022/09/21 01:15:55;;;;;;;4.65;1.20;;;;;;;;;;5095658;28;20028;-71
2022/09/21 01:18:50;;;;;;;2.60;1.38;;;;;;;;;;5095916;28;20510;-71
2022/09/21 01:21:25;;;;;;;2.70;1.30;;;;;;;;;;5091146;28;20111;-71
2022/09/21 01:24:10;;;;;;;1.83;1.00;;;;;;;;;;5095527;28;20091;-71
2022/09/21 01:26:55;;;;;;;2.03;1.15;;;;;;;;;;5095962;28;20028;-71
2022/09/21 01:29:21;;;;;;;1.98;1.13;;;;;;;;;;5095292;28;20062;-71
2022/09/21 01:31:50;;;;;;;1.55;1.10;;;;;;;;;;5096007;28;20464;-71
2022/09/21 01:34:21;;;;;;;2.30;1.25;;;;;;;;;;5095656;28;20032;-71
2022/09/21 01:36:48;;;;;;;3.22;1.27;;;;;;;;;;5095314;28;20094;-71
2022/09/21 01:39:16;;;;;;;1.98;1.13;;;;;;;;;;5095408;28;20475;-71
2022/09/21 01:41:43;;;;;;;2.13;1.40;;;;;;;;;;5095699;28;20020;-71
2022/09/21 01:44:17;;;;;;;1.75;1.00;;;;;;;;;;5094960;28;20085;-71
2022/09/21 01:46:43;;;;;;;;;;;;;;;;;;5095870;28;20031;-71
2022/09/21 01:49:17;;;;;;;2.95;1.02;;;;;;;;;;5095307;28;19904;-71
2022/09/21 01:51:45;;;;;;;2.80;1.15;;;;;;;;;;5095113;28;20054;-71
2022/09/21 01:54:20;;;;;;;2.03;1.30;;;;;;;;;;5095860;28;20028;-71
2022/09/21 01:56:50;;;;;;;2.20;1.20;;;;;;;;;;5095530;28;20031;-71
2022/09/21 01:59:21;;;;;;;3.55;1.58;;;;;;;;;;5094924;28;20092;-71
2022/09/21 02:01:57;;;;;;;1.95;1.30;;;;;;;;;;5094153;28;20027;-71
2022/09/21 02:04:23;;;;;;;2.90;1.50;;;;;;;;;;5094636;28;20388;-71
2022/09/21 02:06:49;;;;;;;4.40;1.40;;;;;;;;;;5110950;28;20372;-71
2022/09/21 02:09:16;;;;;;;1.95;0.88;;;;;;;;;;5094934;28;20084;-71
2022/09/21 02:11:44;;;;;;;2.60;1.25;;;;;;;;;;5094721;28;20024;-71
2022/09/21 02:14:17;;;;;;;3.15;1.30;;;;;;;;;;5095380;28;20020;-71
2022/09/21 02:16:43;;;;;;;;;;;;;;;;;;5095267;28;20024;-71
2022/09/21 02:19:10;;;;;;;3.65;1.60;;;;;;;;;;5094374;28;19919;-71
2022/09/21 02:21:45;;;;;;;5.05;1.20;;;;;;;;;;5094627;28;20024;-71
2022/09/21 02:24:35;;;;;;;1.40;1.13;;;;;;;;;;5094782;28;20058;-71
2022/09/21 02:27:03;;;;;;;2.55;1.50;;;;;;;;;;5094338;28;20418;-71
2022/09/21 02:29:30;;;;;;;3.53;1.55;;;;;;;;;;5094554;28;20614;-71
2022/09/21 02:32:04;;;;;;;2.85;1.45;;;;;;;;;;5094525;28;20473;-71
2022/09/21 02:34:52;;;;;;;3.45;1.52;;;;;;;;;;5094333;28;20384;-71
2022/09/21 02:37:38;;;;;;;2.72;1.80;;;;;;;;;;5094374;28;20024;-71
2022/09/21 02:40:13;;;;;;;2.42;1.20;;;;;;;;;;5092425;28;20036;-71
2022/09/21 02:42:41;;;;;;;2.53;1.42;;;;;;;;;;5094310;28;20020;-71
2022/09/21 02:45:08;;;;;;;2.90;1.45;;;;;;;;;;5094167;28;20028;-71
2022/09/21 02:47:38;;;;;;;3.00;1.30;;;;;;;;;;5093829;28;20027;-71
2022/09/21 02:50:07;;;;;;;2.70;1.23;;;;;;;;;;5109910;28;20473;-71
2022/09/21 02:52:34;;;;;;;3.20;1.27;;;;;;;;;;5109757;28;20498;-71
2022/09/21 02:55:01;;;;;;;2.58;1.50;;;;;;;;;;5093653;28;20376;-72
2022/09/21 02:57:27;;;;;;;2.38;1.55;;;;;;;;;;5093948;28;20572;-72
2022/09/21 02:59:54;;;;;;;4.47;1.90;;;;;;;;;;5094218;28;20024;-71
2022/09/21 03:02:20;;;;;;;3.30;1.50;;;;;;;;;;5093555;28;20092;-71
2022/09/21 03:04:47;;;;;;;3.42;1.38;;;;;;;;;;5094232;28;20020;-71
2022/09/21 03:07:17;;;;;;;2.38;1.10;;;;;;;;;;5093916;28;20091;-71
2022/09/21 03:09:43;;;;;;;2.92;1.42;;;;;;;;;;5093497;28;20020;-71
2022/09/21 03:12:10;;;;;;;4.07;1.67;;;;;;;;;;5093605;28;20027;-71
2022/09/21 03:14:36;;;;;;;3.13;1.60;;;;;;;;;;5093569;28;20107;-71
2022/09/21 03:17:02;;;;;;;3.60;1.58;;;;;;;;;;5093802;28;20031;-71
2022/09/21 03:19:28;;;;;;;4.20;1.60;;;;;;;;;;5093728;28;20028;-71
2022/09/21 03:21:55;;;;;;;1.90;1.13;;;;;;;;;;5093298;28;20384;-71
2022/09/21 03:27:07;;;;;;;3.95;1.75;;;;;;;;;;5093690;28;20404;-71
2022/09/21 03:29:33;;;;;;;2.13;1.52;;;;;;;;;;5093406;28;20095;-71
2022/09/21 03:31:59;;;;;;;2.80;1.55;;;;;;;;;;5093638;28;20028;-71
2022/09/21 03:34:25;;;;;;;3.00;1.63;;;;;;;;;;5093742;28;20020;-72
2022/09/21 03:36:52;;;;;;;3.40;1.60;;;;;;;;;;5108950;28;20476;-71
2022/09/21 03:39:18;;;;;;;2.17;1.35;;;;;;;;;;5093390;28;20136;-72
2022/09/21 03:41:44;;;;;;;2.85;1.30;;;;;;;;;;5093560;28;20551;-72
2022/09/21 03:44:10;;;;;;;3.97;1.90;;;;;;;;;;5108756;28;20028;-71
2022/09/21 03:46:36;;;;;;;4.22;1.60;;;;;;;;;;5093503;28;20031;-71
2022/09/21 03:49:02;;;;;;;2.70;1.52;;;;;;;;;;5093467;28;20110;-71
2022/09/21 03:51:30;;;;;;;4.28;1.75;;;;;;;;;;5108681;28;20024;-71
2022/09/21 03:53:56;;;;;;;2.35;1.55;;;;;;;;;;5093394;28;20510;-71
2022/09/21 03:56:22;;;;;;;2.90;1.50;;;;;;;;;;5093363;28;20024;-71
2022/09/21 03:58:49;;;;;;;3.78;1.52;;;;;;;;;;5093140;28;20111;-71
2022/09/21 04:01:15;;;;;;;4.38;1.67;;;;;;;;;;5093407;28;20032;-71
2022/09/21 04:03:41;;;;;;;6.28;1.60;;;;;;;;;;5093039;28;20024;-72
2022/09/21 04:06:11;;;;;;;2.33;1.20;;;;;;;;;;5093280;28;20024;-73
2022/09/21 04:08:37;;;;;;;3.70;1.42;;;;;;;;;;5093253;28;20066;-73
2022/09/21 04:11:10;;;;;;;3.35;1.30;;;;;;;;;;5092857;28;20023;-72
2022/09/21 04:13:36;;;;;;;;;;;;;;;;;;5109294;28;20477;-71
2022/09/21 04:16:02;;;;;;;2.88;1.50;;;;;;;;;;5093448;28;19911;-72
2022/09/21 04:18:29;;;;;;;2.90;1.45;;;;;;;;;;5092847;28;20036;-73
2022/09/21 04:20:55;;;;;;;3.80;1.40;;;;;;;;;;5108834;28;20439;-73
2022/09/21 04:23:21;;;;;;;3.70;1.90;;;;;;;;;;5093059;28;20069;-73
2022/09/21 04:25:51;;;;;;;4.55;1.75;;;;;;;;;;5094676;28;20023;-73
2022/09/21 04:28:17;;;;;;;3.17;1.35;;;;;;;;;;5095670;28;20434;-73
2022/09/21 04:30:44;;;;;;;2.38;1.75;;;;;;;;;;5097016;28;20017;-72
2022/09/21 04:33:10;;;;;;;2.45;1.50;;;;;;;;;;5096664;28;20487;-73
2022/09/21 04:35:36;;;;;;;2.58;1.50;;;;;;;;;;5095450;28;20099;-73
2022/09/21 04:38:02;;;;;;;2.53;1.38;;;;;;;;;;5112068;28;20109;-73
2022/09/21 04:40:28;;;;;;;2.85;1.33;;;;;;;;;;5096293;28;20036;-73
2022/09/21 04:42:55;;;;;;;2.55;1.27;;;;;;;;;;5094626;28;20539;-73
2022/09/21 04:45:22;;;;;;;4.18;1.75;;;;;;;;;;5094449;28;20046;-73
2022/09/21 04:47:48;;;;;;;3.63;1.45;;;;;;;;;;5094341;28;20080;-73
2022/09/21 04:50:15;;;;;;;3.05;1.65;;;;;;;;;;5094475;28;20365;-73
2022/09/21 04:52:41;;;;;;;5.80;1.83;;;;;;;;;;5095058;28;20043;-73
2022/09/21 04:55:08;;;;;;;4.63;1.80;;;;;;;;;;5094940;28;20028;-72
2022/09/21 04:57:34;;;;;;;2.58;1.50;;;;;;;;;;5095960;28;20020;-73
2022/09/21 05:00:01;;;;;;;4.18;1.50;;;;;;;;;;5095929;28;20027;-73
2022/09/21 05:02:27;;;;;;;3.03;1.40;;;;;;;;;;5096851;28;20031;-73
2022/09/21 05:04:53;;;;;;;2.40;1.13;;;;;;;;;;5096278;28;20020;-73
2022/09/21 05:07:19;;;;;;;4.25;2.17;;;;;;;;;;5095801;28;20074;-73
2022/09/21 05:10:03;;;;;;;4.57;1.75;;;;;;;;;;5096049;28;20028;-70
2022/09/21 05:12:31;;;;;;;2.33;1.45;;;;;;;;;;5096299;28;20021;-73
2022/09/21 05:14:57;;;;;;;2.67;1.25;;;;;;;;;;5092617;28;20052;-74
2022/09/21 05:17:23;;;;;;;4.10;1.75;;;;;;;;;;5075715;28;20032;-74
2022/09/21 05:19:49;;;;;;;3.67;1.67;;;;;;;;;;5074571;28;20161;-72
2022/09/21 05:22:16;;;;;;;4.68;1.52;;;;;;;;;;5088786;28;20503;-75
2022/09/21 05:24:42;;;;;;;13.65;2.80;;;;;;;;;;5076299;28;20028;-76
2022/09/21 05:27:08;;;;;;;2.67;1.35;;;;;;;;;;5074892;28;20017;-73
2022/09/21 05:29:34;;;;;;;2.38;1.25;;;;;;;;;;5083116;28;20083;-76
2022/09/21 05:32:14;;;;;;;4.03;1.45;;;;;;;;;;5086090;28;20036;-75
2022/09/21 05:34:59;;;;;;;2.72;1.25;;;;;;;;;;5077432;28;20509;-75
2022/09/21 05:37:25;;;;;;;3.40;1.35;;;;;;;;;;5069185;28;20096;-76
2022/09/21 05:39:51;;;;;;;3.65;1.35;;;;;;;;;;5086683;28;20396;-75
2022/09/21 05:42:18;;;;;;;5.03;1.58;;;;;;;;;;5092352;28;20031;-71
2022/09/21 05:44:44;;;;;;;2.92;1.50;;;;;;;;;;5093460;28;20442;-76
2022/09/21 05:47:25;;;;;;;2.42;1.20;;;;;;;;;;5091531;28;20081;-75
2022/09/21 05:49:51;;;;;;;2.03;1.25;;;;;;;;;;5090683;28;20028;-71
2022/09/21 05:52:31;;;;;;;3.20;1.48;;;;;;;;;;5092178;28;20024;-70
2022/09/21 05:55:03;;;;;;;3.70;1.40;;;;;;;;;;5093035;28;20035;-69
2022/09/21 05:57:41;;;;;;;6.72;1.73;;;;;;;;;;5092368;28;20048;-71
2022/09/21 06:00:07;;;;;;;3.33;1.38;;;;;;;;;;5091465;28;20032;-71
2022/09/21 06:02:36;;;;;;;3.40;1.45;;;;;;;;;;5093042;28;20465;-73
2022/09/21 06:05:05;;;;;;;2.38;1.23;;;;;;;;;;5091082;28;20097;-73
2022/09/21 06:07:31;;;;;;;3.60;1.40;;;;;;;;;;5093762;28;20120;-75
2022/09/21 06:09:57;;;;;;;2.45;1.10;;;;;;;;;;5092535;28;20032;-74
2022/09/21 06:12:23;;;;;;;3.60;1.17;;;;;;;;;;5091377;28;20024;-74
2022/09/21 06:14:50;;;;;;;2.15;1.23;;;;;;;;;;5092384;28;20055;-72
2022/09/21 06:17:16;;;;;;;3.78;1.55;;;;;;;;;;5091777;28;20511;-73
2022/09/21 06:19:42;;;;;;;2.78;1.33;;;;;;;;;;5089950;28;20067;-74
2022/09/21 06:22:08;;;;;;;4.63;1.90;;;;;;;;;;5066176;28;20028;-70
2022/09/21 06:24:34;;;;;;;2.13;1.10;;;;;;;;;;5070684;28;20059;-71
2022/09/21 06:28:54;;;;;;;4.68;1.98;;;;;;;;;;5108107;27;20484;-73
2022/09/21 06:31:21;;;;;;;3.13;1.30;;;;;;;;;;5102892;28;20030;-70
2022/09/21 06:33:50;;;;;;;4.25;1.25;;;;;;;;;;5102369;28;20035;-71
2022/09/21 06:36:16;;;;;;;2.97;1.63;;;;;;;;;;5106963;28;20029;-71
2022/09/21 06:40:28;;;;;;;2.40;1.23;;;;;;;;;;5085623;27;20390;-68
2022/09/21 06:44:07;;;;;;;2.60;1.15;;;;;;;;;;5109195;27;20919;-69
2022/09/21 06:50:26;;;;;;;3.22;1.27;;;;;;;;;;5083057;27;20428;-70
2022/09/21 06:55:26;;;;;;;5.97;1.20;;;;;;;;;;5106840;27;21795;-68
2022/09/21 06:57:52;;;;;;;4.45;1.08;;;;;;;;;;5088783;28;20361;-69
2022/09/21 07:00:18;;;;;;;6.72;1.33;;;;;;;;;;5087845;28;20035;-70
2022/09/21 07:03:53;;;;;;;8.25;1.85;;;;;;;;;;5068913;28;20854;-68
2022/09/21 07:07:56;;;;;;;6.53;1.85;;;;;;;;;;5109986;27;20389;-69
2022/09/21 07:10:31;;;;;;;4.25;1.75;;;;;;;;;;5110053;27;20457;-69
2022/09/21 07:14:47;;;;;;;3.17;1.02;;;;;;;;;;5109986;27;20993;-69
2022/09/21 07:18:54;;;;;;;2.00;1.15;;;;;;;;;;5101182;27;20634;-69
2022/09/21 07:21:55;;;;;;;2.33;1.17;;;;;;;;;;5170181;27;20114;-69
2022/09/21 07:24:21;;;;;;;3.35;1.10;;;;;;;;;;5150101;27;20529;-69
2022/09/21 07:26:48;;;;;;;1.70;0.95;;;;;;;;;;5151000;27;20030;-69
2022/09/21 07:29:14;;;;;;;1.27;0.65;;;;;;;;;;5140380;27;20030;-69
2022/09/21 07:33:43;;;;;;;1.63;0.82;;;;;;;;;;5103469;27;20409;-72
2022/09/21 07:36:10;;;;;;;3.45;1.00;;;;;;;;;;5107007;28;20418;-71
2022/09/21 07:38:40;;;;;;;4.57;0.93;;;;;;;;;;5108852;28;20740;-71
2022/09/21 07:41:07;;;;;;;1.40;0.85;;;;;;;;;;5110352;28;20104;-71
2022/09/21 07:43:33;;;;;;;3.38;1.55;;;;;;;;;;5109584;28;20032;-70
2022/09/21 07:50:13;;;;;;;2.13;1.17;;;;;;;;;;5065748;28;20387;-68
2022/09/21 07:53:03;;;;;;;3.20;1.65;;;;;;;;;;5107422;27;20388;-67
2022/09/21 07:55:29;;;;;;;3.30;1.15;;;;;;;;;;5107701;28;20035;-67
2022/09/21 08:00:23;;;;;;;2.65;1.13;;;;;;;;;;5106516;27;20593;-68
2022/09/21 08:02:49;;;;;;;2.45;1.00;;;;;;;;;;5104639;28;20084;-68
2022/09/21 08:05:16;;;;;;;4.57;1.45;;;;;;;;;;5101404;28;20609;-70
2022/09/21 08:07:42;;;;;;;2.95;0.85;;;;;;;;;;5098193;28;20029;-70
2022/09/21 08:10:08;;;;;;;1.30;1.00;;;;;;;;;;5103488;28;20439;-68
2022/09/21 08:12:35;;;;;;;1.92;0.90;;;;;;;;;;5106942;28;20024;-70
2022/09/21 08:15:01;;;;;;;2.28;0.85;;;;;;;;;;5106909;28;20028;-69
2022/09/21 08:19:13;;;;;;;2.50;0.80;;;;;;;;;;5063430;28;20433;-70
2022/09/21 08:21:40;;;;;;;1.52;0.80;;;;;;;;;;5063423;28;20032;-69
2022/09/21 08:24:26;;;;;;;3.53;1.00;;;;;;;;;;5099872;27;20614;-70
2022/09/21 08:30:49;;;;;;;2.83;1.02;;;;;;;;;;5109647;27;20396;-70
2022/09/21 08:33:15;;;;;;;2.70;0.90;;;;;;;;;;5109639;28;20430;-70
2022/09/21 08:35:41;;;;;;;2.05;1.10;;;;;;;;;;5109790;28;20073;-68
2022/09/21 08:38:07;;;;;;;5.70;1.08;;;;;;;;;;5109106;28;20081;-69
2022/09/21 08:40:34;;;;;;;2.55;1.02;;;;;;;;;;5109648;28;20051;-71
2022/09/21 08:43:00;;;;;;;2.10;1.30;;;;;;;;;;5108866;28;20062;-68
2022/09/21 08:45:44;;;;;;;2.42;1.02;;;;;;;;;;5171426;27;20583;-67
2022/09/21 08:48:15;;;;;;;2.15;1.00;;;;;;;;;;5111624;28;20041;-67
2022/09/21 08:50:44;;;;;;;1.52;1.00;;;;;;;;;;5125380;27;20027;-68
2022/09/21 08:53:16;;;;;;;1.30;0.85;;;;;;;;;;5128151;27;20050;-67
2022/09/21 08:58:14;;;;;;;3.63;1.02;;;;;;;;;;5106039;27;20422;-66
2022/09/21 09:01:18;;;;;;;3.85;1.40;;;;;;;;;;5057990;28;20646;-67
2022/09/21 09:03:45;;;;;;;1.52;1.10;;;;;;;;;;5054223;28;20092;-66
2022/09/21 09:06:24;;;;;;;3.10;0.95;;;;;;;;;;5062312;28;20017;-67
2022/09/21 09:08:54;;;;;;;2.10;1.08;;;;;;;;;;5047178;28;20029;-67
2022/09/21 09:11:39;;;;;;;1.48;1.02;;;;;;;;;;5048335;28;20033;-67
2022/09/21 09:14:24;;;;;;;2.05;1.00;;;;;;;;;;5047326;28;20017;-67
2022/09/21 09:16:57;;;;;;;2.90;1.08;;;;;;;;;;5048084;28;20363;-67
2022/09/21 09:20:19;;;;;;;3.35;1.20;;;;;;;;;;5093493;27;20409;-67
2022/09/21 09:22:59;;;;;;;2.30;1.35;;;;;;;;;;5054214;28;20029;-66
2022/09/21 09:25:26;;;;;;;1.65;1.00;;;;;;;;;;5050344;28;20021;-66
2022/09/21 09:27:57;;;;;;;1.30;1.00;;;;;;;;;;5049457;28;20110;-67
2022/09/21 09:32:47;;;;;;;1.30;1.20;;;;;;;;;;5098179;27;20122;-67
2022/09/21 09:36:41;;;;;;;1.55;1.27;;;;;;;;;;5147450;27;20171;-73
2022/09/21 09:40:51;;;;;;;1.73;1.20;;;;;;;;;;5104072;27;20426;-74
2022/09/21 09:45:21;;;;;;;2.05;1.30;;;;;;;;;;5068243;28;20422;-72
2022/09/21 09:48:06;;;;;;;2.13;1.48;;;;;;;;;;5068078;28;20037;-75
2022/09/21 09:50:38;;;;;;;2.95;1.17;;;;;;;;;;5065468;28;20074;-75
2022/09/21 09:53:07;;;;;;;1.95;1.27;;;;;;;;;;5064475;28;20668;-75
2022/09/21 09:57:47;;;;;;;1.63;1.20;;;;;;;;;;5104014;27;20397;-75
2022/09/21 10:00:14;;;;;;;2.33;1.70;;;;;;;;;;5106768;28;20412;-75
2022/09/21 10:02:49;;;;;;;1.58;1.17;;;;;;;;;;5107426;28;20035;-75
2022/09/21 10:05:42;;;;;;;5.20;1.30;;;;;;;;;;5108423;28;20469;-75
2022/09/21 10:08:26;;;;;;;4.47;1.53;;;;;;;;;;5107084;28;20472;-74
2022/09/21 10:10:53;;;;;;;5.97;1.67;;;;;;;;;;5109777;28;20252;-74
2022/09/21 10:16:52;;;;;;;5.10;2.63;;;;;;;;;;5110157;27;20400;-75
2022/09/21 10:19:21;;;;;;;1.65;1.40;;;;;;;;;;5109873;28;20081;-76
2022/09/21 10:21:48;;;;;;;2.75;1.38;;;;;;;;;;5110294;28;20027;-78
2022/09/21 10:27:47;;;;;;;2.13;1.40;;;;;;;;;;5111108;27;20401;-74
2022/09/21 10:30:33;;;;;;;187.23;123.45;;;;;;;;;;5110752;28;20036;-74
2022/09/21 10:33:00;;;;;;;2.03;1.42;;;;;;;;;;5110944;28;20479;-78
2022/09/21 10:35:26;;;;;;;4.05;1.40;;;;;;;;;;5110763;28;20024;-79
2022/09/21 10:39:11;;;;;;;3.25;1.65;;;;;;;;;;5110346;27;20414;-79
2022/09/21 10:41:37;;;;;;;2.08;1.60;;;;;;;;;;5110073;28;20030;-75
2022/09/21 10:44:51;;;;;;;4.47;1.90;;;;;;;;;;5110250;27;20418;-71
2022/09/21 10:47:38;;;;;;;2.50;1.50;;;;;;;;;;5104351;28;20028;-72
2022/09/21 10:50:20;;;;;;;2.25;1.40;;;;;;;;;;5093058;28;20035;-73
2022/09/21 10:52:46;;;;;;;2.45;1.27;;;;;;;;;;5089831;28;20032;-74
2022/09/21 10:55:17;;;;;;;2.13;1.33;;;;;;;;;;5089886;28;20028;-79
2022/09/21 10:59:56;;;;;;;1.85;1.23;;;;;;;;;;5109150;27;20673;-77
2022/09/21 11:10:35;;;;;;;2.50;1.55;;;;;;;;;;5108685;27;20768;-73
2022/09/21 11:14:41;;;;;;;2.45;1.40;;;;;;;;;;5108424;27;20117;-74
2022/09/21 11:17:13;;;;;;;2.47;1.42;;;;;;;;;;5108738;28;20056;-75
2022/09/21 11:19:46;;;;;;;1.67;0.90;;;;;;;;;;5110073;28;20027;-75
2022/09/21 11:22:31;;;;;;;1.75;0.95;;;;;;;;;;5105159;28;20036;-74
2022/09/21 11:27:42;;;;;;;1.50;1.10;;;;;;;;;;5110896;27;20420;-74
2022/09/21 11:30:46;;;;;;;3.85;1.30;;;;;;;;;;5084037;28;20921;-74
2022/09/21 11:33:25;;;;;;;6.70;1.30;;;;;;;;;;5070690;28;20029;-74
2022/09/21 11:35:55;;;;;;;1.55;1.00;;;;;;;;;;5070117;28;20087;-77
2022/09/21 11:38:39;;;;;;;1.90;1.20;;;;;;;;;;5069829;28;20021;-75
2022/09/21 11:41:05;;;;;;;2.03;1.15;;;;;;;;;;5066440;28;20611;-78
2022/09/21 11:43:38;;;;;;;1.45;1.00;;;;;;;;;;5066855;28;20017;-76
2022/09/21 11:46:07;;;;;;;1.73;1.00;;;;;;;;;;5066630;28;20025;-75
2022/09/21 11:48:40;;;;;;;1.35;1.20;;;;;;;;;;5067475;28;20025;-75
2022/09/21 11:52:02;;;;;;;1.38;1.20;;;;;;;;;;5108496;27;20616;-73
2022/09/21 11:56:55;;;;;;;1.27;1.00;;;;;;;;;;5108200;27;20449;-74
2022/09/21 12:03:32;;;;;;;4.05;2.22;;;;;;;;;;5108170;27;20655;-77
2022/09/21 12:06:37;;;;;;;1.58;1.13;;;;;;;;;;5107756;27;20453;-74
2022/09/21 12:10:38;;;;;;;1.80;1.30;;;;;;;;;;5170194;27;20183;-78
2022/09/21 12:13:07;;;;;;;1.98;1.30;;;;;;;;;;5149721;27;20106;-76
2022/09/21 12:15:39;;;;;;;2.00;0.98;;;;;;;;;;5150148;27;20111;-75
2022/09/21 12:18:20;;;;;;;4.25;1.88;;;;;;;;;;5131438;27;20389;-75
2022/09/21 12:20:53;;;;;;;2.28;1.50;;;;;;;;;;5149945;27;20026;-76
2022/09/21 12:23:19;;;;;;;;;;;;;;;;;;5137783;27;20019;-75
2022/09/21 12:25:47;;;;;;;2.22;1.38;;;;;;;;;;5128680;27;19907;-76
2022/09/21 12:28:23;;;;;;;4.70;0.85;;;;;;;;;;5149103;27;20112;-76
2022/09/21 12:30:56;;;;;;;3.10;1.63;;;;;;;;;;5146206;27;20034;-76
2022/09/21 12:38:43;;;;;;;1.00;0.90;;;;;;;;;;5110338;27;20882;-75
2022/09/21 12:44:22;;;;;;;1.83;1.17;;;;;;;;;;5131334;27;21083;-77
2022/09/21 12:47:08;;;;;;;1.42;1.02;;;;;;;;;;5131499;28;20060;-74
2022/09/21 12:49:36;;;;;;;1.52;0.93;;;;;;;;;;5131635;27;20024;-75
2022/09/21 12:52:05;;;;;;;2.88;1.08;;;;;;;;;;5130943;28;20020;-76
2022/09/21 12:54:38;;;;;;;2.15;1.40;;;;;;;;;;5131169;27;20028;-75
2022/09/21 12:57:12;;;;;;;3.00;1.23;;;;;;;;;;5131383;28;20091;-80
2022/09/21 12:59:48;;;;;;;2.55;1.10;;;;;;;;;;5130719;27;20390;-79
2022/09/21 13:02:32;;;;;;;2.20;1.10;;;;;;;;;;5131159;27;20103;-72
2022/09/21 13:05:07;;;;;;;1.40;1.10;;;;;;;;;;5131522;27;20027;-72
2022/09/21 13:07:33;;;;;;;1.25;1.02;;;;;;;;;;5131206;27;20022;-72
2022/09/21 13:10:01;;;;;;;1.35;1.05;;;;;;;;;;5131357;28;20020;-72
2022/09/21 13:12:38;;;;;;;1.40;1.00;;;;;;;;;;5146694;27;20476;-72
2022/09/21 13:15:16;;;;;;;3.13;1.25;;;;;;;;;;5131387;28;20027;-72
2022/09/21 13:17:43;;;;;;;1.45;1.10;;;;;;;;;;5131200;28;20088;-72
2022/09/21 13:20:20;;;;;;;1.77;1.10;;;;;;;;;;5146775;27;20019;-72
2022/09/21 13:22:49;;;;;;;2.53;1.10;;;;;;;;;;5146981;27;20026;-72
2022/09/21 13:25:19;;;;;;;1.08;0.93;;;;;;;;;;5131072;28;20019;-71
2022/09/21 13:28:00;;;;;;;2.22;1.30;;;;;;;;;;5130625;28;20015;-71
2022/09/21 13:30:34;;;;;;;1.40;1.10;;;;;;;;;;5131663;28;20029;-72
2022/09/21 13:33:01;;;;;;;0.80;0.80;;;;;;;;;;5131084;28;20433;-72
2022/09/21 13:35:48;;;;;;;1.33;1.00;;;;;;;;;;5146479;27;20019;-71
2022/09/21 13:38:25;;;;;;;2.53;1.00;;;;;;;;;;5130937;28;20456;-72
2022/09/21 13:42:53;;;;;;;1.40;1.00;;;;;;;;;;5111403;27;20569;-72
2022/09/21 13:45:20;;;;;;;1.63;1.17;;;;;;;;;;5111585;28;20044;-71
2022/09/21 13:47:49;;;;;;;1.20;1.10;;;;;;;;;;5111076;28;20032;-71
2022/09/21 13:50:22;;;;;;;3.58;1.10;;;;;;;;;;5111544;28;20019;-71
2022/09/21 13:52:51;;;;;;;1.67;1.20;;;;;;;;;;5111565;28;20062;-71
2022/09/21 13:55:20;;;;;;;1.95;1.10;;;;;;;;;;5110718;28;20024;-72
2022/09/21 13:57:47;;;;;;;1.10;1.00;;;;;;;;;;5111060;28;20043;-71
2022/09/21 14:00:14;;;;;;;0.80;0.80;;;;;;;;;;5111050;28;20055;-71
2022/09/21 14:02:42;;;;;;;2.03;0.80;;;;;;;;;;5110592;28;20031;-71
2022/09/21 14:05:17;;;;;;;1.05;0.80;;;;;;;;;;5110865;28;20441;-72
2022/09/21 14:07:45;;;;;;;2.45;0.90;;;;;;;;;;5111291;28;20140;-72
2022/09/21 14:10:18;;;;;;;1.60;0.98;;;;;;;;;;5110718;28;20027;-71
2022/09/21 14:12:44;;;;;;;1.13;0.80;;;;;;;;;;5110741;28;20020;-71
2022/09/21 14:15:31;;;;;;;0.88;0.80;;;;;;;;;;5110802;28;20472;-71
2022/09/21 14:18:18;;;;;;;0.82;0.50;;;;;;;;;;5110781;28;20024;-72
2022/09/21 14:21:02;;;;;;;0.80;0.70;;;;;;;;;;5110689;28;20036;-71
2022/09/21 14:23:29;;;;;;;1.13;0.73;;;;;;;;;;5110074;28;20032;-71
2022/09/21 14:25:56;;;;;;;3.47;0.98;;;;;;;;;;5110656;28;20048;-71
2022/09/21 14:28:43;;;;;;;1.23;0.80;;;;;;;;;;5110368;28;20028;-71
2022/09/21 14:31:15;;;;;;;1.45;0.88;;;;;;;;;;5109917;28;20035;-72
2022/09/21 14:33:49;;;;;;;2.30;0.90;;;;;;;;;;5110720;28;20023;-72
2022/09/21 14:36:29;;;;;;;2.42;1.00;;;;;;;;;;5110713;28;20024;-72
2022/09/21 14:38:59;;;;;;;2.42;1.17;;;;;;;;;;5109955;28;20057;-72
2022/09/21 14:41:30;;;;;;;1.15;1.00;;;;;;;;;;5110051;28;20119;-72
2022/09/21 14:43:57;;;;;;;1.63;1.00;;;;;;;;;;5110230;28;20020;-71
2022/09/21 14:46:58;;;;;;;1.77;1.10;;;;;;;;;;5110184;28;20028;-71
2022/09/21 14:49:39;;;;;;;1.60;0.98;;;;;;;;;;5077322;28;20039;-73
2022/09/21 14:52:24;;;;;;;3.90;0.80;;;;;;;;;;5107173;28;20019;-71
2022/09/21 14:55:04;;;;;;;0.93;0.70;;;;;;;;;;5094319;28;20133;-71
2022/09/21 14:57:34;;;;;;;1.38;0.80;;;;;;;;;;5096119;28;20031;-73
2022/09/21 15:00:04;;;;;;;1.30;0.95;;;;;;;;;;5095994;28;20023;-72
2022/09/21 15:02:33;;;;;;;1.40;1.13;;;;;;;;;;5096334;28;20032;-71
2022/09/21 15:05:08;;;;;;;1.40;0.95;;;;;;;;;;5096083;28;20055;-71
2022/09/21 15:10:56;;;;;;;2.45;0.90;;;;;;;;;;5096120;28;20096;-71
2022/09/21 15:13:25;;;;;;;0.68;0.63;;;;;;;;;;5067190;28;20032;-71
2022/09/21 15:16:10;;;;;;;0.90;0.60;;;;;;;;;;5095981;28;20447;-71
2022/09/21 15:18:40;;;;;;;1.63;0.85;;;;;;;;;;5095876;28;20032;-71
2022/09/21 15:21:20;;;;;;;1.17;1.05;;;;;;;;;;5095431;28;20080;-71
2022/09/21 15:23:48;;;;;;;2.25;0.90;;;;;;;;;;5096040;28;20031;-71
2022/09/21 15:26:19;;;;;;;0.90;0.73;;;;;;;;;;5095712;28;20380;-71
2022/09/21 15:28:47;;;;;;;1.10;0.75;;;;;;;;;;5095780;28;20098;-71
2022/09/21 15:32:36;;;;;;;1.92;1.13;;;;;;;;;;5071187;28;20630;-70
2022/09/21 15:35:04;;;;;;;1.48;0.70;;;;;;;;;;5060121;28;20582;-70
2022/09/21 15:37:34;;;;;;;1.00;0.73;;;;;;;;;;5070739;28;20025;-71
2022/09/21 15:40:02;;;;;;;1.27;0.95;;;;;;;;;;5070495;28;20067;-71
2022/09/21 15:42:28;;;;;;;1.52;0.68;;;;;;;;;;5070590;28;20388;-71
2022/09/21 15:45:15;;;;;;;1.60;0.80;;;;;;;;;;5070566;28;20576;-71
2022/09/21 15:47:44;;;;;;;1.70;0.60;;;;;;;;;;5069853;28;20094;-70
2022/09/21 15:50:14;;;;;;;2.45;1.05;;;;;;;;;;5070726;28;20059;-70
2022/09/21 15:52:47;;;;;;;2.83;0.73;;;;;;;;;;5070667;28;20024;-71
2022/09/21 15:55:51;;;;;;;1.13;0.80;;;;;;;;;;5110988;27;20565;-71
2022/09/21 16:00:16;;;;;;;1.40;0.88;;;;;;;;;;5111332;27;20987;-71
2022/09/21 16:02:49;;;;;;;1.10;1.00;;;;;;;;;;5109508;28;20396;-70
2022/09/21 16:05:18;;;;;;;2.25;1.30;;;;;;;;;;5111200;28;20047;-71
2022/09/21 16:07:45;;;;;;;1.42;0.93;;;;;;;;;;5111385;28;20103;-70
2022/09/21 16:10:29;;;;;;;2.08;1.25;;;;;;;;;;5110818;28;20047;-71
2022/09/21 16:14:52;;;;;;;5.15;2.10;;;;;;;;;;5111220;28;20024;-73
2022/09/21 16:16:19;;;;;;;3.60;2.17;;;;;;;;;;5111460;27;20451;-70
2022/09/21 16:18:46;;;;;;;7.72;2.25;;;;;;;;;;5111642;28;20055;-70
2022/09/21 16:23:54;;;;;;;2.92;1.73;;;;;;;;;;5111212;27;20400;-73
2022/09/21 16:26:25;;;;;;;1.17;1.00;;;;;;;;;;5111286;28;20020;-70
2022/09/21 16:29:15;;;;;;;2.58;1.45;;;;;;;;;;5111574;28;20020;-73
2022/09/21 16:31:42;;;;;;;3.30;1.33;;;;;;;;;;5111403;28;20372;-72
2022/09/21 16:34:23;;;;;;;2.03;1.38;;;;;;;;;;5111266;28;20468;-72
2022/09/21 16:36:50;;;;;;;4.88;2.17;;;;;;;;;;5110742;28;20026;-72
2022/09/21 16:39:17;;;;;;;6.00;2.03;;;;;;;;;;5111061;28;20031;-72
2022/09/21 16:45:10;;;;;;;3.60;1.75;;;;;;;;;;5111137;27;20769;-72
2022/09/21 16:47:36;;;;;;;3.53;1.75;;;;;;;;;;5111590;28;20038;-72
2022/09/21 16:50:08;;;;;;;2.72;1.60;;;;;;;;;;5111218;28;20024;-72